createdAt,value
2023-04-27T05:01:10.730Z,30.76
2023-04-27T05:02:10.694Z,29.97
2023-04-27T05:03:10.847Z,29.81
2023-04-27T05:04:11.037Z,29.76
2023-04-27T05:05:10.773Z,29.70
2023-04-27T05:06:10.853Z,29.65
2023-04-27T05:07:13.302Z,29.65
2023-04-27T05:08:10.823Z,29.62
2023-04-27T05:09:10.864Z,29.63
2023-04-27T05:10:10.837Z,29.61
2023-04-27T05:11:10.852Z,29.57
2023-04-27T05:12:10.818Z,29.58
2023-04-27T05:13:10.845Z,29.59
2023-04-27T05:14:10.774Z,29.55
2023-04-27T05:15:10.767Z,29.54
2023-04-27T05:16:10.827Z,29.56
2023-04-27T05:17:10.756Z,29.50
2023-04-27T05:18:10.764Z,29.47
2023-04-27T05:19:10.786Z,29.42
2023-04-27T05:20:10.745Z,29.43
2023-04-27T05:21:10.707Z,29.42
2023-04-27T05:22:10.720Z,29.44
2023-04-27T05:23:10.733Z,29.40
2023-04-27T05:24:10.713Z,29.43
2023-04-27T05:25:10.702Z,29.36
2023-04-27T05:26:10.706Z,29.37
2023-04-27T05:27:10.703Z,29.32
2023-04-27T05:28:10.699Z,29.35
2023-04-27T05:29:10.671Z,29.34
2023-04-27T05:30:10.682Z,29.30
2023-04-27T05:31:10.815Z,29.35
2023-04-27T05:32:10.723Z,29.31
2023-04-27T05:33:10.732Z,29.25
2023-04-27T05:34:10.646Z,29.32
2023-04-27T05:35:10.644Z,29.32
2023-04-27T05:36:10.745Z,29.28
2023-04-27T05:37:10.598Z,29.36
2023-04-27T05:38:10.604Z,29.40
2023-04-27T05:39:11.504Z,29.35
2023-04-27T05:40:10.592Z,29.34
2023-04-27T05:41:10.653Z,29.36
2023-04-27T05:42:10.949Z,29.36
2023-04-27T05:43:10.935Z,29.36
2023-04-27T05:44:10.793Z,29.41
2023-04-27T05:45:10.800Z,29.40
2023-04-27T05:46:10.620Z,29.38
2023-04-27T05:47:10.584Z,29.64
2023-04-27T05:48:10.582Z,29.64
2023-04-27T05:49:10.559Z,29.67
2023-04-27T05:50:10.528Z,29.87
2023-04-27T05:51:10.544Z,29.85
2023-04-27T05:52:10.539Z,29.73
2023-04-27T05:53:10.539Z,29.76
2023-04-27T05:54:10.551Z,30.03
2023-04-27T05:55:10.477Z,30.03
2023-04-27T05:56:10.478Z,30.08
2023-04-27T05:57:12.555Z,30.15
2023-04-27T05:58:10.456Z,30.15
2023-04-27T05:59:10.641Z,30.25
2023-04-27T06:00:10.665Z,30.26
2023-04-27T06:01:10.439Z,30.67
2023-04-27T06:02:10.483Z,30.94
2023-04-27T06:03:10.575Z,31.52
2023-04-27T06:04:10.586Z,31.91
2023-04-27T06:05:10.553Z,31.51
2023-04-27T06:06:10.531Z,31.65
2023-04-27T06:07:10.494Z,31.95
2023-04-27T06:08:10.525Z,32.06
2023-04-27T06:09:10.536Z,32.14
2023-04-27T06:10:10.546Z,31.88
2023-04-27T06:11:10.564Z,31.67
2023-04-27T06:12:10.669Z,30.87
2023-04-27T06:13:10.706Z,30.93
2023-04-27T06:14:10.681Z,31.25
2023-04-27T06:15:10.912Z,31.47
2023-04-27T06:16:10.771Z,31.89
2023-04-27T06:17:10.755Z,32.16
2023-04-27T06:18:10.839Z,32.17
2023-04-27T06:19:10.795Z,32.03
2023-04-27T06:20:11.609Z,32.13
2023-04-27T06:21:10.803Z,32.06
2023-04-27T06:22:10.942Z,31.84
2023-04-27T06:23:10.813Z,31.69
2023-04-27T06:24:10.822Z,31.73
2023-04-27T06:25:10.872Z,31.59
2023-04-27T06:26:10.939Z,31.49
2023-04-27T06:27:11.004Z,31.87
2023-04-27T06:28:11.095Z,31.64
2023-04-27T06:29:11.327Z,31.52
2023-04-27T06:30:11.629Z,31.44
2023-04-27T06:31:11.197Z,31.41
2023-04-27T06:32:11.280Z,31.56
2023-04-27T06:33:11.281Z,31.29
2023-04-27T06:34:11.716Z,31.62
2023-04-27T06:35:11.372Z,31.31
2023-04-27T06:36:11.588Z,31.14
2023-04-27T06:37:11.413Z,31.17
2023-04-27T06:38:11.407Z,31.22
2023-04-27T06:39:11.492Z,31.39
2023-04-27T06:40:11.382Z,31.23
2023-04-27T06:41:11.363Z,31.22
2023-04-27T06:42:11.371Z,31.25
2023-04-27T06:43:11.340Z,31.19
2023-04-27T06:44:11.386Z,31.12
2023-04-27T06:45:11.346Z,31.31
2023-04-27T06:46:11.412Z,31.34
2023-04-27T06:47:11.315Z,31.35
2023-04-27T06:48:11.319Z,31.54
2023-04-27T06:49:11.734Z,31.33
2023-04-27T06:50:11.476Z,31.23
2023-04-27T06:51:11.350Z,31.19
2023-04-27T06:52:11.452Z,31.20
2023-04-27T06:53:11.568Z,31.44
2023-04-27T06:54:11.498Z,31.30
2023-04-27T06:55:11.533Z,31.09
2023-04-27T06:56:11.581Z,31.03
2023-04-27T06:57:11.632Z,31.05
2023-04-27T06:58:13.001Z,31.11
2023-04-27T06:59:11.956Z,31.18
2023-04-27T07:00:11.780Z,31.28
2023-04-27T07:01:11.929Z,31.36
2023-04-27T07:02:11.849Z,31.32
2023-04-27T07:03:12.089Z,31.32
2023-04-27T07:04:12.077Z,31.39
2023-04-27T07:05:11.964Z,31.69
2023-04-27T07:06:12.018Z,31.74
2023-04-27T07:07:12.063Z,31.85
2023-04-27T07:08:12.120Z,31.80
2023-04-27T07:09:26.138Z,31.82
2023-04-27T07:10:13.214Z,31.70
2023-04-27T07:11:12.147Z,31.79
2023-04-27T07:12:12.143Z,31.82
2023-04-27T07:13:12.633Z,31.83
2023-04-27T07:14:12.148Z,31.84
2023-04-27T07:15:12.116Z,31.73
2023-04-27T07:16:12.272Z,31.71
2023-04-27T07:17:12.203Z,31.82
2023-04-27T07:18:12.139Z,31.84
2023-04-27T07:19:12.683Z,31.78
2023-04-27T07:20:12.106Z,31.89
2023-04-27T07:21:12.065Z,32.18
2023-04-27T07:22:12.230Z,32.01
2023-04-27T07:23:12.334Z,32.11
2023-04-27T07:24:12.132Z,32.05
2023-04-27T07:25:12.107Z,32.10
2023-04-27T07:26:12.027Z,31.92
2023-04-27T07:27:12.013Z,31.99
2023-04-27T07:28:12.089Z,31.69
2023-04-27T07:29:25.570Z,31.93
2023-04-27T07:30:12.995Z,31.97
2023-04-27T07:31:13.746Z,32.14
2023-04-27T07:32:12.042Z,32.13
2023-04-27T07:33:12.016Z,32.07
2023-04-27T07:34:11.986Z,32.18
2023-04-27T07:35:12.033Z,31.96
2023-04-27T07:36:12.133Z,32.00
2023-04-27T07:37:12.172Z,32.10
2023-04-27T07:38:12.633Z,32.29
2023-04-27T07:39:12.615Z,32.41
2023-04-27T07:40:12.438Z,32.32
2023-04-27T07:41:12.333Z,32.30
2023-04-27T07:42:12.701Z,32.28
2023-04-27T07:43:13.398Z,32.17
2023-04-27T07:44:12.503Z,32.18
2023-04-27T07:45:12.588Z,32.10
2023-04-27T07:46:12.659Z,31.97
2023-04-27T07:47:12.812Z,32.18
2023-04-27T07:48:12.972Z,32.00
2023-04-27T07:49:14.103Z,31.95
2023-04-27T07:50:12.738Z,32.13
2023-04-27T07:51:12.795Z,31.97
2023-04-27T07:52:12.756Z,31.94
2023-04-27T07:53:12.786Z,32.07
2023-04-27T07:54:12.812Z,32.05
2023-04-27T07:55:12.792Z,32.01
2023-04-27T07:56:12.882Z,32.15
2023-04-27T07:57:12.840Z,32.13
2023-04-27T07:58:12.835Z,32.24
2023-04-27T07:59:13.355Z,32.26
2023-04-27T08:00:13.076Z,32.23
2023-04-27T08:01:12.913Z,32.32
2023-04-27T08:02:19.622Z,32.26
2023-04-27T08:03:14.299Z,32.18
2023-04-27T08:04:13.079Z,32.18
2023-04-27T08:05:13.009Z,32.10
2023-04-27T08:06:13.619Z,32.12
2023-04-27T08:07:13.093Z,32.24
2023-04-27T08:08:12.885Z,32.22
2023-04-27T08:09:12.973Z,31.92
2023-04-27T08:10:12.855Z,31.97
2023-04-27T08:11:12.885Z,31.98
2023-04-27T08:12:12.858Z,31.90
2023-04-27T08:13:12.928Z,32.00
2023-04-27T08:14:12.800Z,31.56
2023-04-27T08:15:12.792Z,31.08
2023-04-27T08:16:12.880Z,31.27
2023-04-27T08:17:12.810Z,31.05
2023-04-27T08:18:12.825Z,30.75
2023-04-27T08:19:13.241Z,30.65
2023-04-27T08:20:12.769Z,30.60
2023-04-27T08:21:12.767Z,30.31
2023-04-27T08:22:12.799Z,30.13
2023-04-27T08:23:12.735Z,30.03
2023-04-27T08:24:12.767Z,30.28
2023-04-27T08:25:12.839Z,30.26
2023-04-27T08:26:12.832Z,30.50
2023-04-27T08:27:12.864Z,30.21
2023-04-27T08:28:12.881Z,30.03
2023-04-27T08:29:26.312Z,30.06
2023-04-27T08:30:13.940Z,31.28
2023-04-27T08:31:13.053Z,31.18
2023-04-27T08:32:12.880Z,32.05
2023-04-27T08:33:12.996Z,32.46
2023-04-27T08:34:12.878Z,32.59
2023-04-27T08:35:12.885Z,32.71
2023-04-27T08:36:12.902Z,32.90
2023-04-27T08:37:12.829Z,33.29
2023-04-27T08:38:12.841Z,33.32
2023-04-27T08:39:13.048Z,33.29
2023-04-27T08:40:14.728Z,33.41
2023-04-27T08:41:21.356Z,32.85
2023-04-27T08:42:13.842Z,32.18
2023-04-27T08:43:12.900Z,32.07
2023-04-27T08:44:12.820Z,31.90
2023-04-27T08:45:14.495Z,31.95
2023-04-27T08:46:12.813Z,31.13
2023-04-27T08:47:12.921Z,30.96
2023-04-27T08:48:12.877Z,30.88
2023-04-27T08:49:15.193Z,30.47
2023-04-27T08:50:12.792Z,30.61
2023-04-27T08:51:12.852Z,30.85
2023-04-27T08:52:12.798Z,31.53
2023-04-27T08:53:12.756Z,31.79
2023-04-27T08:54:13.254Z,31.80
2023-04-27T08:55:14.360Z,31.56
2023-04-27T08:56:12.716Z,31.24
2023-04-27T08:57:12.731Z,31.40
2023-04-27T08:58:12.736Z,31.43
2023-04-27T08:59:12.852Z,31.65
2023-04-27T09:00:12.721Z,31.62
2023-04-27T09:01:12.702Z,31.33
2023-04-27T09:02:12.816Z,31.35
2023-04-27T09:03:12.852Z,31.55
2023-04-27T09:04:13.004Z,31.74
2023-04-27T09:05:12.896Z,31.45
2023-04-27T09:06:12.799Z,30.95
2023-04-27T09:07:12.684Z,31.35
2023-04-27T09:08:12.780Z,31.66
2023-04-27T09:09:12.852Z,32.18
2023-04-27T09:10:12.674Z,32.53
2023-04-27T09:11:12.791Z,32.47
2023-04-27T09:12:12.866Z,32.32
2023-04-27T09:13:12.624Z,32.33
2023-04-27T09:14:13.015Z,32.15
2023-04-27T09:15:13.687Z,32.12
2023-04-27T09:16:12.648Z,31.76
2023-04-27T09:17:12.675Z,31.61
2023-04-27T09:18:12.605Z,31.79
2023-04-27T09:19:12.822Z,32.01
2023-04-27T09:20:12.586Z,31.96
2023-04-27T09:21:12.546Z,32.15
2023-04-27T09:22:12.580Z,32.30
2023-04-27T09:23:12.557Z,32.45
2023-04-27T09:24:12.704Z,32.39
2023-04-27T09:25:12.668Z,32.46
2023-04-27T09:26:12.812Z,32.50
2023-04-27T09:27:12.789Z,32.62
2023-04-27T09:28:12.828Z,32.44
2023-04-27T09:29:13.019Z,32.28
2023-04-27T09:30:13.715Z,32.42
2023-04-27T09:31:14.321Z,32.67
2023-04-27T09:32:13.789Z,32.89
2023-04-27T09:33:13.795Z,32.69
2023-04-27T09:34:12.876Z,32.78
2023-04-27T09:35:13.695Z,33.02
2023-04-27T09:36:12.864Z,32.77
2023-04-27T09:37:12.905Z,32.76
2023-04-27T09:38:13.741Z,32.67
2023-04-27T09:39:13.152Z,32.73
2023-04-27T09:40:13.127Z,32.67
2023-04-27T09:41:13.067Z,32.49
2023-04-27T09:42:13.168Z,32.49
2023-04-27T09:43:13.037Z,32.47
2023-04-27T09:44:13.115Z,32.40
2023-04-27T09:45:13.445Z,32.34
2023-04-27T09:46:13.370Z,32.28
2023-04-27T09:47:13.282Z,32.23
2023-04-27T09:48:13.403Z,32.16
2023-04-27T09:49:13.501Z,32.07
2023-04-27T09:50:13.356Z,32.05
2023-04-27T09:51:13.375Z,31.93
2023-04-27T09:52:14.147Z,31.88
2023-04-27T09:53:13.402Z,31.86
2023-04-27T09:54:13.383Z,31.82
2023-04-27T09:55:13.417Z,31.81
2023-04-27T09:56:13.429Z,31.78
2023-04-27T09:57:13.398Z,31.75
2023-04-27T09:58:13.423Z,31.78
2023-04-27T09:59:13.588Z,31.75
2023-04-27T10:00:13.427Z,31.69
2023-04-27T10:01:13.567Z,31.64
2023-04-27T10:02:24.105Z,31.63
2023-04-27T10:03:14.526Z,31.63
2023-04-27T10:04:13.621Z,31.63
2023-04-27T10:05:13.508Z,31.62
2023-04-27T10:06:13.448Z,31.58
2023-04-27T10:07:13.444Z,31.61
2023-04-27T10:08:13.476Z,31.60
2023-04-27T10:09:13.671Z,31.58
2023-04-27T10:10:13.405Z,31.58
2023-04-27T10:11:13.387Z,31.57
2023-04-27T10:12:13.425Z,31.54
2023-04-27T10:13:13.425Z,31.60
2023-04-27T10:14:13.628Z,31.57
2023-04-27T10:15:13.709Z,31.59
2023-04-27T10:16:13.591Z,31.61
2023-04-27T10:17:13.662Z,31.54
2023-04-27T10:18:13.912Z,31.57
2023-04-27T10:19:14.017Z,31.82
2023-04-27T10:20:13.788Z,31.93
2023-04-27T10:21:13.902Z,31.77
2023-04-27T10:22:13.933Z,31.78
2023-04-27T10:23:13.962Z,31.45
2023-04-27T10:24:14.275Z,31.43
2023-04-27T10:25:14.133Z,31.30
2023-04-27T10:26:14.553Z,31.41
2023-04-27T10:27:14.212Z,31.33
2023-04-27T10:28:14.382Z,31.27
2023-04-27T10:29:14.528Z,31.26
2023-04-27T10:30:14.386Z,30.88
2023-04-27T10:31:14.505Z,29.82
2023-04-27T10:32:14.490Z,29.83
2023-04-27T10:33:14.545Z,29.82
2023-04-27T10:34:14.547Z,30.94
2023-04-27T10:35:15.463Z,31.17
2023-04-27T10:36:15.377Z,31.33
2023-04-27T10:37:14.544Z,31.29
2023-04-27T10:38:14.478Z,31.19
2023-04-27T10:39:14.677Z,31.05
2023-04-27T10:40:14.508Z,31.16
2023-04-27T10:41:14.795Z,30.79
2023-04-27T10:42:14.467Z,30.05
2023-04-27T10:43:14.456Z,30.12
2023-04-27T10:44:14.624Z,29.96
2023-04-27T10:45:14.456Z,30.03
2023-04-27T10:46:14.603Z,30.68
2023-04-27T10:47:14.420Z,30.88
2023-04-27T10:48:14.526Z,30.74
2023-04-27T10:49:14.683Z,30.74
2023-04-27T10:50:14.412Z,30.79
2023-04-27T10:51:14.387Z,30.82
2023-04-27T10:52:14.364Z,30.85
2023-04-27T10:53:14.468Z,30.86
2023-04-27T10:54:14.482Z,30.86
2023-04-27T10:55:14.503Z,30.98
2023-04-27T10:56:14.563Z,30.90
2023-04-27T10:57:14.555Z,30.89
2023-04-27T10:58:14.646Z,30.86
2023-04-27T10:59:14.913Z,30.88
2023-04-27T11:00:16.367Z,30.90
2023-04-27T11:01:14.799Z,30.89
2023-04-27T11:02:14.834Z,30.87
2023-04-27T11:03:15.040Z,30.84
2023-04-27T11:04:15.152Z,30.85
2023-04-27T11:05:15.091Z,30.83
2023-04-27T11:06:15.083Z,30.80
2023-04-27T11:07:15.160Z,30.83
2023-04-27T11:08:15.175Z,30.83
2023-04-27T11:09:15.236Z,30.81
2023-04-27T11:10:15.343Z,30.76
2023-04-27T11:11:16.678Z,30.77
2023-04-27T11:12:15.435Z,30.75
2023-04-27T11:13:15.499Z,30.74
2023-04-27T11:14:15.683Z,30.72
2023-04-27T11:15:15.538Z,30.72
2023-04-27T11:16:15.633Z,30.71
2023-04-27T11:17:15.656Z,30.70
2023-04-27T11:18:15.740Z,30.69
2023-04-27T11:19:16.260Z,30.70
2023-04-27T11:20:15.799Z,30.69
2023-04-27T11:21:15.845Z,30.69
2023-04-27T11:22:15.910Z,30.68
2023-04-27T11:23:15.969Z,30.67
2023-04-27T11:24:16.001Z,30.66
2023-04-27T11:25:16.040Z,30.65
2023-04-27T11:26:16.128Z,30.64
2023-04-27T11:27:16.110Z,30.66
2023-04-27T11:28:16.162Z,30.63
2023-04-27T11:29:16.434Z,30.68
2023-04-27T11:30:16.768Z,30.66
2023-04-27T11:31:16.368Z,30.64
2023-04-27T11:32:16.305Z,30.65
2023-04-27T11:33:16.371Z,30.65
2023-04-27T11:34:16.449Z,30.64
2023-04-27T11:35:16.424Z,30.66
2023-04-27T11:36:16.434Z,30.65
2023-04-27T11:37:19.310Z,30.65
2023-04-27T11:38:17.273Z,30.66
2023-04-27T11:39:16.604Z,30.66
2023-04-27T11:40:16.803Z,30.65
2023-04-27T11:41:16.383Z,30.65
2023-04-27T11:42:16.383Z,30.76
2023-04-27T11:43:16.367Z,30.85
2023-04-27T11:44:16.391Z,30.87
2023-04-27T11:45:16.317Z,30.73
2023-04-27T11:46:16.368Z,30.71
2023-04-27T11:47:18.774Z,30.72
2023-04-27T11:48:16.487Z,30.67
2023-04-27T11:49:16.523Z,30.67
2023-04-27T11:50:16.605Z,30.66
2023-04-27T11:51:16.654Z,30.66
2023-04-27T11:52:16.655Z,30.63
2023-04-27T11:53:18.744Z,30.63
2023-04-27T11:54:16.818Z,30.64
2023-04-27T11:55:16.694Z,30.66
2023-04-27T11:56:16.763Z,30.71
2023-04-27T11:57:16.798Z,30.75
2023-04-27T11:58:16.773Z,30.76
2023-04-27T11:59:16.822Z,30.84
2023-04-27T12:00:16.835Z,30.85
2023-04-27T12:01:22.025Z,30.93
2023-04-27T12:02:17.944Z,31.00
2023-04-27T12:03:16.979Z,30.97
2023-04-27T12:04:17.128Z,31.12
2023-04-27T12:05:16.968Z,31.08
2023-04-27T12:06:32.300Z,31.12
2023-04-27T12:07:17.854Z,31.13
2023-04-27T12:08:16.817Z,31.11
2023-04-27T12:09:16.822Z,31.17
2023-04-27T12:10:16.878Z,31.22
2023-04-27T12:11:16.835Z,31.28
2023-04-27T12:12:16.794Z,31.14
2023-04-27T12:13:16.764Z,30.91
2023-04-27T12:14:16.990Z,30.28
2023-04-27T12:15:16.759Z,30.52
2023-04-27T12:16:16.828Z,30.37
2023-04-27T12:17:16.717Z,30.24
2023-04-27T12:18:16.737Z,30.16
2023-04-27T12:19:16.727Z,30.36
2023-04-27T12:20:16.704Z,30.33
2023-04-27T12:21:16.828Z,29.75
2023-04-27T12:22:16.685Z,29.72
2023-04-27T12:23:16.790Z,29.33
2023-04-27T12:24:16.995Z,29.02
2023-04-27T12:25:16.835Z,29.03
2023-04-27T12:26:16.866Z,29.00
2023-04-27T12:27:16.850Z,29.03
2023-04-27T12:28:16.852Z,28.87
2023-04-27T12:29:16.911Z,28.60
2023-04-27T12:30:16.902Z,28.82
2023-04-27T12:31:16.915Z,28.81
2023-04-27T12:32:16.982Z,28.89
2023-04-27T12:33:17.154Z,28.93
2023-04-27T12:34:17.085Z,29.18
2023-04-27T12:35:16.988Z,29.29
2023-04-27T12:36:17.053Z,29.06
2023-04-27T12:37:17.032Z,28.96
2023-04-27T12:38:17.043Z,28.87
2023-04-27T12:39:17.132Z,29.09
2023-04-27T12:40:17.121Z,29.10
2023-04-27T12:41:17.154Z,29.14
2023-04-27T12:42:17.217Z,29.34
2023-04-27T12:43:17.251Z,29.18
2023-04-27T12:44:17.227Z,29.33
2023-04-27T12:45:17.225Z,29.10
2023-04-27T12:46:17.285Z,29.10
2023-04-27T12:47:32.677Z,29.51
2023-04-27T12:48:18.271Z,29.54
2023-04-27T12:49:17.272Z,29.57
2023-04-27T12:50:17.188Z,29.57
2023-04-27T12:51:17.174Z,29.39
2023-04-27T12:52:17.203Z,29.37
2023-04-27T12:53:17.176Z,29.51
2023-04-27T12:54:17.419Z,29.55
2023-04-27T12:55:31.392Z,29.53
2023-04-27T12:56:18.189Z,29.50
2023-04-27T12:57:17.184Z,29.49
2023-04-27T12:58:17.163Z,29.25
2023-04-27T12:59:17.158Z,29.35
2023-04-27T13:00:17.146Z,29.34
2023-04-27T13:01:17.137Z,29.44
2023-04-27T13:02:17.155Z,29.46
2023-04-27T13:03:17.244Z,29.52
2023-04-27T13:04:17.321Z,29.50
2023-04-27T13:05:17.177Z,29.28
2023-04-27T13:06:17.109Z,29.23
2023-04-27T13:07:17.058Z,29.22
2023-04-27T13:08:17.076Z,29.19
2023-04-27T13:09:17.073Z,29.17
2023-04-27T13:10:17.111Z,29.63
2023-04-27T13:11:17.101Z,29.52
2023-04-27T13:12:17.048Z,28.98
2023-04-27T13:13:17.061Z,28.99
2023-04-27T13:14:17.234Z,29.23
2023-04-27T13:15:17.021Z,29.37
2023-04-27T13:16:17.069Z,29.41
2023-04-27T13:17:17.045Z,29.34
2023-04-27T13:18:17.155Z,29.38
2023-04-27T13:19:17.104Z,29.39
2023-04-27T13:20:17.202Z,29.32
2023-04-27T13:21:17.173Z,29.31
2023-04-27T13:22:17.230Z,29.36
2023-04-27T13:23:17.304Z,29.29
2023-04-27T13:24:17.328Z,29.29
2023-04-27T13:25:17.299Z,29.34
2023-04-27T13:26:17.819Z,29.18
2023-04-27T13:27:17.366Z,29.13
2023-04-27T13:28:17.343Z,29.09
2023-04-27T13:29:17.410Z,29.14
2023-04-27T13:30:17.376Z,29.15
2023-04-27T13:31:17.415Z,29.22
2023-04-27T13:32:17.374Z,29.08
2023-04-27T13:33:22.492Z,29.25
2023-04-27T13:34:18.364Z,29.31
2023-04-27T13:35:17.436Z,29.20
2023-04-27T13:36:17.379Z,29.05
2023-04-27T13:37:17.372Z,28.96
2023-04-27T13:38:17.377Z,28.62
2023-04-27T13:39:17.351Z,28.73
2023-04-27T13:40:17.328Z,28.70
2023-04-27T13:41:17.328Z,28.75
2023-04-27T13:42:17.334Z,28.72
2023-04-27T13:43:17.284Z,28.89
2023-04-27T13:44:17.302Z,28.85
2023-04-27T13:45:17.303Z,28.54
2023-04-27T13:46:17.354Z,28.44
2023-04-27T13:47:17.299Z,28.43
2023-04-27T13:48:17.241Z,28.40
2023-04-27T13:49:17.280Z,28.46
2023-04-27T13:50:17.271Z,28.51
2023-04-27T13:51:17.277Z,28.60
2023-04-27T13:52:17.242Z,28.84
2023-04-27T13:53:17.300Z,28.78
2023-04-27T13:54:17.329Z,28.75
2023-04-27T13:55:17.306Z,28.90
2023-04-27T13:56:17.368Z,28.98
2023-04-27T13:57:17.337Z,28.94
2023-04-27T13:58:17.392Z,28.88
2023-04-27T13:59:17.364Z,28.98
2023-04-27T14:00:17.351Z,28.96
2023-04-27T14:01:17.404Z,28.96
2023-04-27T14:02:17.461Z,29.06
2023-04-27T14:03:17.610Z,29.16
2023-04-27T14:04:17.665Z,29.14
2023-04-27T14:05:17.507Z,29.08
2023-04-27T14:06:17.513Z,29.02
2023-04-27T14:07:17.525Z,28.94
2023-04-27T14:08:17.507Z,29.07
2023-04-27T14:09:17.519Z,29.12
2023-04-27T14:10:17.589Z,29.15
2023-04-27T14:11:17.596Z,29.13
2023-04-27T14:12:17.634Z,28.63
2023-04-27T14:13:17.682Z,28.73
2023-04-27T14:14:17.724Z,28.68
2023-04-27T14:15:17.816Z,28.57
2023-04-27T14:16:17.850Z,28.72
2023-04-27T14:17:17.905Z,28.75
2023-04-27T14:18:17.981Z,28.73
2023-04-27T14:19:17.973Z,28.78
2023-04-27T14:20:18.020Z,29.16
2023-04-27T14:21:18.066Z,29.08
2023-04-27T14:22:18.069Z,29.03
2023-04-27T14:23:18.149Z,28.82
2023-04-27T14:24:18.248Z,28.57
2023-04-27T14:25:18.252Z,29.18
2023-04-27T14:26:18.295Z,29.28
2023-04-27T14:27:18.399Z,29.33
2023-04-27T14:28:18.395Z,29.61
2023-04-27T14:29:18.906Z,29.56
2023-04-27T14:30:18.522Z,29.65
2023-04-27T14:31:18.581Z,29.66
2023-04-27T14:32:18.796Z,30.20
2023-04-27T14:33:18.664Z,30.19
2023-04-27T14:34:21.489Z,31.36
2023-04-27T14:35:18.680Z,30.56
2023-04-27T14:36:18.722Z,30.38
2023-04-27T14:37:18.697Z,30.15
2023-04-27T14:38:18.672Z,30.14
2023-04-27T14:39:18.623Z,30.95
2023-04-27T14:40:18.656Z,30.57
2023-04-27T14:41:18.623Z,30.12
2023-04-27T14:42:18.640Z,30.02
2023-04-27T14:43:19.385Z,29.97
2023-04-27T14:44:18.616Z,30.05
2023-04-27T14:45:18.587Z,30.18
2023-04-27T14:46:20.894Z,30.26
2023-04-27T14:47:18.994Z,30.42
2023-04-27T14:48:19.850Z,30.50
2023-04-27T14:49:19.843Z,30.60
2023-04-27T14:50:18.932Z,30.60
2023-04-27T14:51:19.000Z,30.65
2023-04-27T14:52:20.872Z,30.76
2023-04-27T14:53:19.883Z,30.84
2023-04-27T14:54:19.027Z,30.86
2023-04-27T14:55:18.998Z,30.93
2023-04-27T14:56:19.031Z,30.97
2023-04-27T14:57:18.966Z,31.02
2023-04-27T14:58:21.946Z,31.05
2023-04-27T14:59:18.985Z,31.07
2023-04-27T15:00:18.960Z,31.11
2023-04-27T15:01:19.013Z,31.14
2023-04-27T15:02:19.075Z,31.17
2023-04-27T15:03:19.064Z,31.20
2023-04-27T15:04:19.060Z,31.24
2023-04-27T15:05:18.917Z,31.34
2023-04-27T15:06:18.955Z,31.37
2023-04-27T15:07:18.922Z,31.36
2023-04-27T15:08:19.045Z,31.43
2023-04-27T15:09:18.878Z,31.46
2023-04-27T15:10:19.055Z,31.49
2023-04-27T15:11:18.868Z,31.51
2023-04-27T15:12:18.864Z,31.54
2023-04-27T15:13:18.867Z,31.57
2023-04-27T15:14:18.821Z,31.55
2023-04-27T15:15:18.844Z,31.56
2023-04-27T15:16:18.880Z,31.56
2023-04-27T15:17:18.834Z,31.58
2023-04-27T15:18:18.851Z,31.57
2023-04-27T15:19:18.831Z,31.59
2023-04-27T15:20:18.808Z,31.59
2023-04-27T15:21:18.891Z,31.59
2023-04-27T15:22:18.779Z,31.61
2023-04-27T15:23:18.788Z,31.59
2023-04-27T15:24:18.748Z,31.60
2023-04-27T15:25:18.774Z,31.59
2023-04-27T15:26:18.853Z,31.61
2023-04-27T15:27:21.387Z,31.58
2023-04-27T15:28:20.074Z,31.59
2023-04-27T15:29:20.917Z,31.57
2023-04-27T15:30:19.867Z,31.59
2023-04-27T15:31:18.982Z,31.58
2023-04-27T15:32:18.937Z,31.59
2023-04-27T15:33:19.081Z,31.57
2023-04-27T15:34:18.993Z,31.59
2023-04-27T15:35:19.095Z,31.61
2023-04-27T15:36:18.935Z,31.57
2023-04-27T15:37:18.910Z,31.59
2023-04-27T15:38:18.997Z,31.57
2023-04-27T15:39:18.928Z,31.56
2023-04-27T15:40:21.887Z,31.55
2023-04-27T15:41:18.893Z,31.54
2023-04-27T15:42:18.903Z,31.56
2023-04-27T15:43:19.483Z,31.56
2023-04-27T15:44:18.888Z,31.56
2023-04-27T15:45:19.849Z,31.56
2023-04-27T15:46:20.444Z,31.56
2023-04-27T15:47:18.869Z,31.58
2023-04-27T15:48:18.911Z,31.59
2023-04-27T15:49:19.331Z,31.57
2023-04-27T15:50:18.936Z,31.59
2023-04-27T15:51:20.189Z,31.58
2023-04-27T15:52:18.827Z,31.56
2023-04-27T15:53:18.803Z,31.58
2023-04-27T15:54:18.773Z,31.59
2023-04-27T15:55:18.775Z,31.59
2023-04-27T15:56:19.368Z,31.55
2023-04-27T15:57:18.778Z,31.56
2023-04-27T15:58:18.757Z,31.57
2023-04-27T15:59:18.856Z,31.61
2023-04-27T16:00:18.781Z,31.62
2023-04-27T16:01:18.772Z,31.58
2023-04-27T16:02:19.479Z,31.58
2023-04-27T16:03:18.835Z,31.63
2023-04-27T16:04:20.540Z,31.63
2023-04-27T16:05:18.888Z,31.63
2023-04-27T16:06:18.934Z,31.59
2023-04-27T16:07:21.995Z,31.64
2023-04-27T16:08:18.963Z,31.66
2023-04-27T16:09:19.933Z,31.65
2023-04-27T16:10:18.924Z,31.67
2023-04-27T16:11:18.926Z,31.64
2023-04-27T16:12:18.951Z,31.62
2023-04-27T16:13:18.955Z,31.68
2023-04-27T16:14:19.009Z,31.68
2023-04-27T16:15:18.885Z,31.66
2023-04-27T16:16:30.136Z,31.65
2023-04-27T16:17:18.921Z,31.65
2023-04-27T16:18:18.928Z,31.67
2023-04-27T16:19:18.956Z,31.67
2023-04-27T16:20:18.881Z,31.65
2023-04-27T16:21:19.466Z,31.66
2023-04-27T16:22:18.890Z,31.65
2023-04-27T16:23:18.849Z,31.62
2023-04-27T16:24:18.923Z,31.66
2023-04-27T16:25:18.866Z,31.69
2023-04-27T16:26:18.862Z,31.69
2023-04-27T16:27:18.824Z,31.70
2023-04-27T16:28:18.822Z,31.68
2023-04-27T16:29:18.882Z,31.68
2023-04-27T16:30:18.786Z,31.68
2023-04-27T16:31:18.851Z,31.71
2023-04-27T16:32:19.466Z,31.69
2023-04-27T16:33:20.902Z,31.65
2023-04-27T16:34:18.940Z,31.71
2023-04-27T16:35:19.008Z,31.72
2023-04-27T16:36:19.054Z,31.69
2023-04-27T16:37:19.032Z,31.71
2023-04-27T16:38:19.028Z,31.71
2023-04-27T16:39:22.425Z,31.71
2023-04-27T16:40:19.882Z,31.74
2023-04-27T16:41:19.899Z,31.74
2023-04-27T16:42:19.010Z,31.76
2023-04-27T16:43:19.876Z,31.78
2023-04-27T16:44:20.916Z,31.78
2023-04-27T16:45:19.002Z,31.79
2023-04-27T16:46:19.067Z,31.79
2023-04-27T16:47:18.970Z,31.78
2023-04-27T16:48:19.862Z,31.77
2023-04-27T16:49:19.901Z,31.79
2023-04-27T16:50:18.921Z,31.79
2023-04-27T16:51:18.932Z,31.84
2023-04-27T16:52:18.911Z,31.83
2023-04-27T16:53:19.001Z,31.83
2023-04-27T16:54:23.914Z,31.82
2023-04-27T16:55:18.900Z,31.84
2023-04-27T16:56:19.100Z,31.84
2023-04-27T16:57:21.909Z,31.86
2023-04-27T16:58:19.390Z,31.83
2023-04-27T16:59:18.946Z,31.81
2023-04-27T17:00:26.389Z,31.79
